createdAt,value
2022-12-15T00:00:05.091Z,-4.13
2022-12-15T00:01:05.198Z,-4.16
2022-12-15T00:02:05.415Z,-4.18
2022-12-15T00:03:05.662Z,-4.18
2022-12-15T00:04:05.739Z,-4.22
2022-12-15T00:05:05.865Z,-4.19
2022-12-15T00:06:06.022Z,-4.24
2022-12-15T00:07:06.229Z,-4.19
2022-12-15T00:08:06.388Z,-4.21
2022-12-15T00:09:11.126Z,-4.21
2022-12-15T00:10:07.723Z,-4.26
2022-12-15T00:11:06.881Z,-4.28
2022-12-15T00:12:07.071Z,-4.22
2022-12-15T00:13:07.275Z,-4.29
2022-12-15T00:14:07.411Z,-4.28
2022-12-15T00:15:07.577Z,-4.26
2022-12-15T00:16:07.832Z,-4.26
2022-12-15T00:17:07.908Z,-4.33
2022-12-15T00:18:08.114Z,-4.33
2022-12-15T00:19:08.273Z,-4.35
2022-12-15T00:20:08.450Z,-4.26
2022-12-15T00:21:08.618Z,-4.38
2022-12-15T00:22:08.801Z,-4.33
2022-12-15T00:23:08.982Z,-4.35
2022-12-15T00:24:09.162Z,-4.33
2022-12-15T00:25:09.317Z,-4.32
2022-12-15T00:26:09.491Z,-4.40
2022-12-15T00:27:09.674Z,-4.40
2022-12-15T00:28:09.863Z,-4.37
2022-12-15T00:29:09.990Z,-4.38
2022-12-15T00:30:10.181Z,-4.40
2022-12-15T00:31:10.395Z,-4.37
2022-12-15T00:32:10.530Z,-4.35
2022-12-15T00:33:10.706Z,-4.43
2022-12-15T00:34:10.871Z,-4.41
2022-12-15T00:35:11.054Z,-4.40
2022-12-15T00:36:11.222Z,-4.44
2022-12-15T00:37:11.381Z,-4.44
2022-12-15T00:38:11.558Z,-4.41
2022-12-15T00:39:11.752Z,-4.43
2022-12-15T00:40:11.929Z,-4.41
2022-12-15T00:41:12.091Z,-4.50
2022-12-15T00:42:12.266Z,-4.46
2022-12-15T00:43:12.449Z,-4.48
2022-12-15T00:44:17.316Z,-4.46
2022-12-15T00:45:13.805Z,-4.47
2022-12-15T00:46:12.996Z,-4.47
2022-12-15T00:47:13.116Z,-4.48
2022-12-15T00:48:13.290Z,-4.55
2022-12-15T00:49:13.454Z,-4.51
2022-12-15T00:50:13.637Z,-4.53
2022-12-15T00:51:13.818Z,-4.55
2022-12-15T00:52:13.986Z,-4.50
2022-12-15T00:53:14.148Z,-4.55
2022-12-15T00:54:18.051Z,-4.51
2022-12-15T00:55:14.512Z,-4.55
2022-12-15T00:56:14.691Z,-4.59
2022-12-15T00:57:14.849Z,-4.55
2022-12-15T00:58:15.021Z,-4.56
2022-12-15T00:59:15.191Z,-4.59
2022-12-15T01:00:15.377Z,-4.56
2022-12-15T01:01:15.550Z,-4.58
2022-12-15T01:02:15.856Z,-4.56
2022-12-15T01:03:16.002Z,-4.55
2022-12-15T01:04:16.167Z,-4.58
2022-12-15T01:05:16.234Z,-4.61
2022-12-15T01:06:16.425Z,-4.64
2022-12-15T01:07:16.562Z,-4.62
2022-12-15T01:08:16.729Z,-4.64
2022-12-15T01:09:16.889Z,-4.58
2022-12-15T01:10:17.057Z,-4.56
2022-12-15T01:11:17.237Z,-4.62
2022-12-15T01:12:17.407Z,-4.64
2022-12-15T01:13:17.566Z,-4.65
2022-12-15T01:14:17.758Z,-4.61
2022-12-15T01:15:17.924Z,-4.66
2022-12-15T01:16:18.145Z,-4.66
2022-12-15T01:17:18.262Z,-4.74
2022-12-15T01:18:18.441Z,-4.71
2022-12-15T01:19:18.609Z,-4.68
2022-12-15T01:20:18.852Z,-4.68
2022-12-15T01:21:21.932Z,-4.68
2022-12-15T01:22:20.130Z,-4.68
2022-12-15T01:23:19.305Z,-4.76
2022-12-15T01:24:19.467Z,-4.76
2022-12-15T01:25:19.626Z,-4.80
2022-12-15T01:26:19.845Z,-4.74
2022-12-15T01:27:19.970Z,-4.76
2022-12-15T01:28:20.150Z,-4.77
2022-12-15T01:29:20.322Z,-4.80
2022-12-15T01:30:20.487Z,-4.79
2022-12-15T01:31:20.779Z,-4.82
2022-12-15T01:32:20.835Z,-4.76
2022-12-15T01:33:20.992Z,-4.83
2022-12-15T01:34:21.172Z,-4.93
2022-12-15T01:35:21.343Z,-4.84
2022-12-15T01:36:21.533Z,-4.86
2022-12-15T01:37:21.702Z,-4.90
2022-12-15T01:38:21.872Z,-4.86
2022-12-15T01:39:22.051Z,-4.94
2022-12-15T01:40:22.222Z,-4.89
2022-12-15T01:41:22.420Z,-4.89
2022-12-15T01:42:22.555Z,-4.95
2022-12-15T01:43:22.718Z,-4.97
2022-12-15T01:44:22.892Z,-4.98
2022-12-15T01:45:23.053Z,-4.97
2022-12-15T01:46:23.348Z,-5.05
2022-12-15T01:47:23.397Z,-4.95
2022-12-15T01:48:23.575Z,-4.94
2022-12-15T01:49:23.734Z,-5.01
2022-12-15T01:50:23.910Z,-5.07
2022-12-15T01:51:24.109Z,-5.00
2022-12-15T01:52:24.238Z,-5.02
2022-12-15T01:53:24.403Z,-5.00
2022-12-15T01:54:24.605Z,-5.04
2022-12-15T01:55:24.779Z,-5.00
2022-12-15T01:56:24.956Z,-5.00
2022-12-15T01:57:25.114Z,-5.04
2022-12-15T01:58:25.284Z,-5.02
2022-12-15T01:59:25.452Z,-5.02
2022-12-15T02:00:25.666Z,-5.01
2022-12-15T02:01:26.024Z,-5.01
2022-12-15T02:02:26.070Z,-4.97
2022-12-15T02:03:26.165Z,-5.08
2022-12-15T02:04:26.319Z,-5.01
2022-12-15T02:05:26.486Z,-5.02
2022-12-15T02:06:26.698Z,-5.00
2022-12-15T02:07:26.817Z,-5.00
2022-12-15T02:08:26.973Z,-5.02
2022-12-15T02:09:27.144Z,-5.05
2022-12-15T02:10:27.326Z,-5.08
2022-12-15T02:11:27.534Z,-5.05
2022-12-15T02:12:27.667Z,-5.08
2022-12-15T02:13:28.212Z,-5.04
2022-12-15T02:14:28.024Z,-5.01
2022-12-15T02:15:28.194Z,-5.07
2022-12-15T02:16:28.400Z,-5.04
2022-12-15T02:17:28.546Z,-5.12
2022-12-15T02:18:28.703Z,-5.10
2022-12-15T02:19:28.870Z,-5.05
2022-12-15T02:20:29.043Z,-5.08
2022-12-15T02:21:29.220Z,-5.10
2022-12-15T02:22:29.391Z,-5.12
2022-12-15T02:23:29.977Z,-5.16
2022-12-15T02:24:29.723Z,-5.05
2022-12-15T02:25:29.883Z,-5.08
2022-12-15T02:26:30.054Z,-5.15
2022-12-15T02:27:30.240Z,-5.19
2022-12-15T02:28:30.402Z,-5.12
2022-12-15T02:29:30.584Z,-5.13
2022-12-15T02:30:30.740Z,-5.13
2022-12-15T02:31:30.953Z,-5.16
2022-12-15T02:32:31.087Z,-5.19
2022-12-15T02:33:31.639Z,-5.21
2022-12-15T02:34:31.443Z,-5.22
2022-12-15T02:35:31.612Z,-5.21
2022-12-15T02:36:31.816Z,-5.28
2022-12-15T02:37:31.947Z,-5.30
2022-12-15T02:38:32.123Z,-5.28
2022-12-15T02:39:32.296Z,-5.30
2022-12-15T02:40:32.469Z,-5.26
2022-12-15T02:41:32.637Z,-5.33
2022-12-15T02:42:32.816Z,-5.37
2022-12-15T02:43:33.390Z,-5.36
2022-12-15T02:44:33.152Z,-5.39
2022-12-15T02:45:33.356Z,-5.37
2022-12-15T02:46:33.473Z,-5.40
2022-12-15T02:47:33.658Z,-5.30
2022-12-15T02:48:33.859Z,-5.37
2022-12-15T02:49:33.990Z,-5.34
2022-12-15T02:50:34.158Z,-5.43
2022-12-15T02:51:34.341Z,-5.33
2022-12-15T02:52:34.519Z,-5.33
2022-12-15T02:53:35.043Z,-5.36
2022-12-15T02:54:34.842Z,-5.33
2022-12-15T02:55:35.029Z,-5.41
2022-12-15T02:56:35.193Z,-5.36
2022-12-15T02:57:35.372Z,-5.33
2022-12-15T02:58:35.540Z,-5.31
2022-12-15T02:59:35.698Z,-5.28
2022-12-15T03:00:35.873Z,-5.31
2022-12-15T03:01:36.160Z,-5.26
2022-12-15T03:02:36.329Z,-5.37
2022-12-15T03:03:36.828Z,-5.36
2022-12-15T03:04:36.578Z,-5.34
2022-12-15T03:05:36.763Z,-5.31
2022-12-15T03:06:36.933Z,-5.37
2022-12-15T03:07:37.102Z,-5.33
2022-12-15T03:08:37.282Z,-5.36
2022-12-15T03:09:37.451Z,-5.31
2022-12-15T03:10:37.612Z,-5.37
2022-12-15T03:11:37.805Z,-5.33
2022-12-15T03:12:37.972Z,-5.26
2022-12-15T03:13:38.145Z,-5.31
2022-12-15T03:14:38.314Z,-5.31
2022-12-15T03:15:38.491Z,-5.34
2022-12-15T03:16:38.703Z,-5.36
2022-12-15T03:17:38.846Z,-5.33
2022-12-15T03:18:39.009Z,-5.26
2022-12-15T03:19:39.202Z,-5.31
2022-12-15T03:20:39.383Z,-5.26
2022-12-15T03:21:39.537Z,-5.23
2022-12-15T03:22:39.700Z,-5.16
2022-12-15T03:23:39.892Z,-5.25
2022-12-15T03:24:40.076Z,-5.25
2022-12-15T03:25:40.233Z,-5.22
2022-12-15T03:26:40.399Z,-5.25
2022-12-15T03:27:40.574Z,-5.18
2022-12-15T03:28:40.725Z,-5.22
2022-12-15T03:29:40.918Z,-5.22
2022-12-15T03:30:41.067Z,-5.19
2022-12-15T03:31:41.293Z,-5.23
2022-12-15T03:32:41.408Z,-5.19
2022-12-15T03:33:41.591Z,-5.30
2022-12-15T03:34:41.759Z,-5.23
2022-12-15T03:35:41.926Z,-5.22
2022-12-15T03:36:42.121Z,-5.23
2022-12-15T03:37:42.278Z,-5.26
2022-12-15T03:38:42.448Z,-5.16
2022-12-15T03:39:42.629Z,-5.18
2022-12-15T03:40:42.787Z,-5.15
2022-12-15T03:41:42.967Z,-5.15
2022-12-15T03:42:43.133Z,-5.16
2022-12-15T03:43:43.287Z,-5.16
2022-12-15T03:44:43.502Z,-5.15
2022-12-15T03:45:43.747Z,-5.18
2022-12-15T03:46:43.787Z,-5.18
2022-12-15T03:47:43.968Z,-5.22
2022-12-15T03:48:44.147Z,-5.16
2022-12-15T03:49:44.311Z,-5.13
2022-12-15T03:50:44.467Z,-5.25
2022-12-15T03:51:44.667Z,-5.18
2022-12-15T03:52:44.831Z,-5.15
2022-12-15T03:53:44.996Z,-5.08
2022-12-15T03:54:45.168Z,-5.12
2022-12-15T03:55:45.340Z,-5.12
2022-12-15T03:56:45.505Z,-5.15
2022-12-15T03:57:45.672Z,-5.07
2022-12-15T03:58:45.836Z,-5.10
2022-12-15T03:59:46.031Z,-5.16
2022-12-15T04:00:46.215Z,-5.15
2022-12-15T04:01:46.467Z,-5.16
2022-12-15T04:02:46.723Z,-5.21
2022-12-15T04:03:46.784Z,-5.16
2022-12-15T04:04:46.913Z,-5.07
2022-12-15T04:05:47.075Z,-5.07
2022-12-15T04:06:47.247Z,-5.13
2022-12-15T04:07:47.423Z,-5.16
2022-12-15T04:08:47.580Z,-5.13
2022-12-15T04:09:47.782Z,-5.08
2022-12-15T04:10:47.949Z,-5.12
2022-12-15T04:11:48.114Z,-5.12
2022-12-15T04:12:48.269Z,-5.08
2022-12-15T04:13:48.444Z,-5.13
2022-12-15T04:14:49.558Z,-5.19
2022-12-15T04:15:48.818Z,-5.08
2022-12-15T04:16:49.038Z,-5.13
2022-12-15T04:17:49.149Z,-5.12
2022-12-15T04:18:49.321Z,-5.13
2022-12-15T04:19:49.519Z,-5.10
2022-12-15T04:20:50.188Z,-5.10
2022-12-15T04:21:49.855Z,-5.15
2022-12-15T04:22:50.014Z,-5.08
2022-12-15T04:23:50.189Z,-5.10
2022-12-15T04:24:50.365Z,-5.08
2022-12-15T04:25:50.528Z,-5.13
2022-12-15T04:26:50.696Z,-5.13
2022-12-15T04:27:50.865Z,-5.07
2022-12-15T04:28:51.037Z,-5.05
2022-12-15T04:29:51.224Z,-5.04
2022-12-15T04:30:51.453Z,-5.07
2022-12-15T04:31:51.581Z,-5.10
2022-12-15T04:32:51.754Z,-4.98
2022-12-15T04:33:51.939Z,-5.04
2022-12-15T04:34:52.108Z,-4.98
2022-12-15T04:35:52.261Z,-5.05
2022-12-15T04:36:52.452Z,-4.98
2022-12-15T04:37:52.635Z,-4.98
2022-12-15T04:38:52.763Z,-4.98
2022-12-15T04:39:52.941Z,-4.98
2022-12-15T04:40:53.103Z,-4.94
2022-12-15T04:41:53.275Z,-4.95
2022-12-15T04:42:53.482Z,-4.94
2022-12-15T04:43:53.621Z,-4.97
2022-12-15T04:44:53.800Z,-4.94
2022-12-15T04:45:54.021Z,-4.90
2022-12-15T04:46:54.133Z,-4.90
2022-12-15T04:47:54.331Z,-4.93
2022-12-15T04:48:54.506Z,-4.94
2022-12-15T04:49:54.666Z,-4.87
2022-12-15T04:50:54.852Z,-4.93
2022-12-15T04:51:55.005Z,-4.93
2022-12-15T04:52:55.213Z,-4.87
2022-12-15T04:53:55.341Z,-4.89
2022-12-15T04:54:55.511Z,-4.84
2022-12-15T04:55:55.692Z,-4.90
2022-12-15T04:56:55.857Z,-4.89
2022-12-15T04:57:56.049Z,-4.87
2022-12-15T04:58:56.211Z,-4.86
2022-12-15T04:59:56.403Z,-4.86
2022-12-15T05:00:56.558Z,-4.89
2022-12-15T05:01:56.853Z,-4.89
2022-12-15T05:02:56.970Z,-4.90
2022-12-15T05:03:57.123Z,-4.87
2022-12-15T05:04:57.257Z,-4.87
2022-12-15T05:05:57.435Z,-4.94
2022-12-15T05:06:57.607Z,-4.90
2022-12-15T05:07:57.822Z,-4.89
2022-12-15T05:08:57.944Z,-4.94
2022-12-15T05:10:02.781Z,-4.94
2022-12-15T05:10:59.308Z,-4.89
2022-12-15T05:11:58.475Z,-4.97
2022-12-15T05:12:58.645Z,-4.97
2022-12-15T05:13:58.830Z,-4.94
2022-12-15T05:14:58.988Z,-5.02
2022-12-15T05:15:59.197Z,-4.98
2022-12-15T05:16:59.372Z,-4.97
2022-12-15T05:17:59.526Z,-4.93
2022-12-15T05:18:59.685Z,-4.97
2022-12-15T05:19:59.870Z,-4.95
2022-12-15T05:21:00.029Z,-4.93
2022-12-15T05:22:00.216Z,-5.01
2022-12-15T05:23:00.420Z,-5.01
2022-12-15T05:24:00.535Z,-4.95
2022-12-15T05:25:00.708Z,-4.97
2022-12-15T05:26:00.889Z,-5.01
2022-12-15T05:27:01.078Z,-5.00
2022-12-15T05:28:01.279Z,-5.02
2022-12-15T05:29:01.404Z,-5.05
2022-12-15T05:30:01.594Z,-5.08
2022-12-15T05:31:01.786Z,-5.08
2022-12-15T05:32:01.944Z,-5.05
2022-12-15T05:33:02.136Z,-5.10
2022-12-15T05:34:05.537Z,-5.07
2022-12-15T05:35:02.462Z,-5.10
2022-12-15T05:36:02.639Z,-5.08
2022-12-15T05:37:02.816Z,-5.10
2022-12-15T05:38:02.977Z,-5.10
2022-12-15T05:39:03.177Z,-5.18
2022-12-15T05:40:03.335Z,-5.18
2022-12-15T05:41:03.532Z,-5.16
2022-12-15T05:42:03.705Z,-5.16
2022-12-15T05:43:03.864Z,-5.25
2022-12-15T05:44:04.069Z,-5.15
2022-12-15T05:45:04.240Z,-5.15
2022-12-15T05:46:04.441Z,-5.13
2022-12-15T05:47:04.582Z,-5.12
2022-12-15T05:48:04.756Z,-5.16
2022-12-15T05:49:04.937Z,-5.16
2022-12-15T05:50:05.140Z,-5.19
2022-12-15T05:51:05.327Z,-5.18
2022-12-15T05:52:05.465Z,-5.21
2022-12-15T05:53:05.659Z,-5.22
2022-12-15T05:54:05.852Z,-5.21
2022-12-15T05:55:05.990Z,-5.13
2022-12-15T05:56:06.146Z,-5.15
2022-12-15T05:57:06.317Z,-5.22
2022-12-15T05:58:06.498Z,-5.21
2022-12-15T05:59:06.679Z,-5.22
2022-12-15T06:00:06.846Z,-5.25
2022-12-15T06:01:07.014Z,-5.19
2022-12-15T06:02:07.234Z,-5.25
2022-12-15T06:03:07.452Z,-5.21
2022-12-15T06:04:07.578Z,-5.21
2022-12-15T06:05:07.752Z,-5.18
2022-12-15T06:06:07.872Z,-5.15
2022-12-15T06:07:08.027Z,-5.08
2022-12-15T06:08:08.212Z,-5.12
2022-12-15T06:09:08.379Z,-5.12
2022-12-15T06:10:08.590Z,-5.13
2022-12-15T06:11:08.707Z,-5.18
2022-12-15T06:12:08.884Z,-5.15
2022-12-15T06:13:09.079Z,-5.12
2022-12-15T06:14:09.253Z,-5.19
2022-12-15T06:15:09.417Z,-5.16
2022-12-15T06:16:09.603Z,-5.19
2022-12-15T06:17:09.768Z,-5.19
2022-12-15T06:18:09.951Z,-5.22
2022-12-15T06:19:10.117Z,-5.21
2022-12-15T06:20:10.283Z,-5.18
2022-12-15T06:21:10.476Z,-5.18
2022-12-15T06:22:10.629Z,-5.18
2022-12-15T06:23:10.838Z,-5.21
2022-12-15T06:24:10.969Z,-5.13
2022-12-15T06:25:11.161Z,-5.22
2022-12-15T06:26:11.314Z,-5.23
2022-12-15T06:27:11.491Z,-5.25
2022-12-15T06:28:11.669Z,-5.28
2022-12-15T06:29:11.844Z,-5.23
2022-12-15T06:30:12.006Z,-5.22
2022-12-15T06:31:12.204Z,-5.21
2022-12-15T06:32:12.362Z,-5.22
2022-12-15T06:33:12.552Z,-5.22
2022-12-15T06:34:12.709Z,-5.26
2022-12-15T06:35:12.881Z,-5.26
2022-12-15T06:36:13.064Z,-5.23
2022-12-15T06:37:13.232Z,-5.30
2022-12-15T06:38:13.411Z,-5.31
2022-12-15T06:39:13.590Z,-5.30
2022-12-15T06:40:13.750Z,-5.25
2022-12-15T06:41:13.922Z,-5.28
2022-12-15T06:42:14.092Z,-5.30
2022-12-15T06:43:14.328Z,-5.26
2022-12-15T06:44:14.473Z,-5.28
2022-12-15T06:45:14.627Z,-5.26
2022-12-15T06:46:14.831Z,-5.26
2022-12-15T06:47:15.043Z,-5.21
2022-12-15T06:48:15.171Z,-5.21
2022-12-15T06:49:15.352Z,-5.25
2022-12-15T06:50:15.531Z,-5.19
2022-12-15T06:51:17.469Z,-5.19
2022-12-15T06:52:15.875Z,-5.28
2022-12-15T06:53:16.086Z,-5.28
2022-12-15T06:54:16.203Z,-5.23
2022-12-15T06:55:16.397Z,-5.28
2022-12-15T06:56:16.562Z,-5.23
2022-12-15T06:57:16.728Z,-5.26
2022-12-15T06:58:16.914Z,-5.26
2022-12-15T06:59:17.085Z,-5.28
2022-12-15T07:00:17.242Z,-5.28
2022-12-15T07:01:17.594Z,-5.31
2022-12-15T07:02:19.256Z,-5.31
2022-12-15T07:03:17.933Z,-5.25
2022-12-15T07:04:18.003Z,-5.25
2022-12-15T07:05:18.143Z,-5.33
2022-12-15T07:06:18.324Z,-5.28
2022-12-15T07:07:18.506Z,-5.25
2022-12-15T07:08:18.653Z,-5.25
2022-12-15T07:09:18.835Z,-5.25
2022-12-15T07:10:19.014Z,-5.22
2022-12-15T07:11:19.194Z,-5.18
2022-12-15T07:12:19.390Z,-5.18
2022-12-15T07:13:19.544Z,-5.21
2022-12-15T07:14:19.723Z,-5.19
2022-12-15T07:15:19.914Z,-5.18
2022-12-15T07:16:20.161Z,-5.25
2022-12-15T07:17:20.303Z,-5.19
2022-12-15T07:18:20.439Z,-5.21
2022-12-15T07:19:20.629Z,-5.16
2022-12-15T07:20:24.178Z,-5.18
2022-12-15T07:21:22.016Z,-5.21
2022-12-15T07:22:21.166Z,-5.18
2022-12-15T07:23:34.371Z,-5.21
2022-12-15T07:24:22.501Z,-5.21
2022-12-15T07:25:21.654Z,-5.19
2022-12-15T07:26:21.835Z,-5.23
2022-12-15T07:27:22.058Z,-5.21
2022-12-15T07:28:25.744Z,-5.26
2022-12-15T07:29:23.698Z,-5.23
2022-12-15T07:30:22.545Z,-5.25
2022-12-15T07:31:22.905Z,-5.19
2022-12-15T07:32:22.935Z,-5.22
2022-12-15T07:33:23.095Z,-5.18
2022-12-15T07:34:23.244Z,-5.26
2022-12-15T07:35:23.450Z,-5.18
2022-12-15T07:36:23.619Z,-5.23
2022-12-15T07:37:23.794Z,-5.22
2022-12-15T07:38:23.957Z,-5.21
2022-12-15T07:39:24.104Z,-5.21
2022-12-15T07:40:24.280Z,-5.25
2022-12-15T07:41:24.472Z,-5.23
2022-12-15T07:42:24.648Z,-5.28
2022-12-15T07:43:24.877Z,-5.23
2022-12-15T07:44:25.016Z,-5.25
2022-12-15T07:45:25.264Z,-5.19
2022-12-15T07:46:25.414Z,-5.25
2022-12-15T07:47:25.535Z,-5.25
2022-12-15T07:48:25.736Z,-5.23
2022-12-15T07:49:25.887Z,-5.23
2022-12-15T07:50:26.046Z,-5.19
2022-12-15T07:51:26.213Z,-5.21
2022-12-15T07:52:26.376Z,-5.16
2022-12-15T07:53:26.598Z,-5.19
2022-12-15T07:54:26.702Z,-5.08
2022-12-15T07:55:50.101Z,-5.12
2022-12-15T07:56:28.081Z,-5.02
2022-12-15T07:57:27.248Z,-4.93
2022-12-15T07:58:27.414Z,-4.77
2022-12-15T07:59:27.587Z,-4.76
2022-12-15T08:00:27.729Z,-4.62
2022-12-15T08:01:27.962Z,-4.48
2022-12-15T08:02:28.312Z,-4.50
2022-12-15T08:03:28.521Z,-4.43
2022-12-15T08:04:28.446Z,-4.32
2022-12-15T08:05:28.595Z,-4.26
2022-12-15T08:06:28.773Z,-4.13
2022-12-15T08:07:28.966Z,-3.98
2022-12-15T08:08:29.574Z,-3.80
2022-12-15T08:09:29.324Z,-3.71
2022-12-15T08:10:29.474Z,-3.65
2022-12-15T08:11:29.661Z,-3.54
2022-12-15T08:12:29.839Z,-3.47
2022-12-15T08:14:01.312Z,-3.39
2022-12-15T08:14:31.200Z,-3.31
2022-12-15T08:15:30.389Z,-3.21
2022-12-15T08:16:30.680Z,-3.10
2022-12-15T08:17:30.704Z,-3.05
2022-12-15T08:18:30.892Z,-2.92
2022-12-15T08:19:31.088Z,-2.90
2022-12-15T08:20:31.239Z,-2.93
2022-12-15T08:21:31.428Z,-2.89
2022-12-15T08:22:31.600Z,-2.77
2022-12-15T08:23:32.198Z,-2.76
2022-12-15T08:24:31.984Z,-2.67
2022-12-15T08:25:32.156Z,-2.71
2022-12-15T08:26:32.332Z,-2.74
2022-12-15T08:27:32.520Z,-2.67
2022-12-15T08:28:32.713Z,-2.63
2022-12-15T08:29:50.529Z,-2.65
2022-12-15T08:30:34.063Z,-2.60
2022-12-15T08:31:33.294Z,-2.60
2022-12-15T08:32:33.382Z,-2.62
2022-12-15T08:33:34.241Z,-2.58
2022-12-15T08:34:33.761Z,-2.55
2022-12-15T08:35:55.835Z,-2.58
2022-12-15T08:36:35.091Z,-2.63
2022-12-15T08:37:34.252Z,-2.50
2022-12-15T08:38:34.432Z,-2.50
2022-12-15T08:39:34.645Z,-2.52
2022-12-15T08:40:34.785Z,-2.41
2022-12-15T08:41:34.971Z,-2.42
2022-12-15T08:42:35.142Z,-2.41
2022-12-15T08:43:35.451Z,-2.31
2022-12-15T08:44:35.543Z,-2.27
2022-12-15T08:45:35.726Z,-2.21
2022-12-15T08:46:35.835Z,-2.12
2022-12-15T08:47:36.023Z,-2.05
2022-12-15T08:48:36.215Z,-1.93
2022-12-15T08:49:36.415Z,-1.85
2022-12-15T08:50:36.574Z,-1.75
2022-12-15T08:51:36.731Z,-1.67
2022-12-15T08:52:36.874Z,-1.60
2022-12-15T08:53:37.066Z,-1.56
2022-12-15T08:54:37.243Z,-1.49
2022-12-15T08:55:37.455Z,-1.49
2022-12-15T08:56:37.614Z,-1.55
2022-12-15T08:57:37.781Z,-1.43
2022-12-15T08:58:37.959Z,-1.47
2022-12-15T08:59:38.146Z,-1.38
2022-12-15T09:00:38.573Z,-1.38
2022-12-15T09:01:38.567Z,-1.36
2022-12-15T09:02:38.715Z,-1.36
2022-12-15T09:03:38.824Z,-1.40
2022-12-15T09:04:39.043Z,-1.32
2022-12-15T09:05:39.185Z,-1.32
2022-12-15T09:06:39.363Z,-1.30
2022-12-15T09:07:39.505Z,-1.36
2022-12-15T09:08:39.690Z,-1.30
2022-12-15T09:09:39.896Z,-1.26
2022-12-15T09:10:40.060Z,-1.28
2022-12-15T09:11:40.245Z,-1.19
2022-12-15T09:12:40.442Z,-1.18
2022-12-15T09:13:40.633Z,-1.11
2022-12-15T09:14:40.807Z,-1.07
2022-12-15T09:16:08.414Z,-1.02
2022-12-15T09:16:42.331Z,-0.96
2022-12-15T09:17:41.332Z,-0.90
2022-12-15T09:18:41.518Z,-0.86
2022-12-15T09:19:41.717Z,-0.83
2022-12-15T09:20:41.864Z,-0.75
2022-12-15T09:21:42.049Z,-0.74
2022-12-15T09:22:42.230Z,-0.65
2022-12-15T09:23:42.408Z,-0.61
2022-12-15T09:24:42.603Z,-0.51
2022-12-15T09:25:42.738Z,-0.53
2022-12-15T09:26:42.919Z,-0.44
2022-12-15T09:27:43.098Z,-0.44
2022-12-15T09:28:43.288Z,-0.37
2022-12-15T09:29:43.480Z,-0.29
2022-12-15T09:30:43.661Z,-0.25
2022-12-15T09:31:43.807Z,-0.25
2022-12-15T09:32:43.985Z,-0.14
2022-12-15T09:33:44.165Z,-0.10
2022-12-15T09:34:44.373Z,-0.07
2022-12-15T09:35:44.526Z,-0.02
2022-12-15T09:36:44.660Z,-0.00
2022-12-15T09:37:51.468Z,0.04
2022-12-15T09:38:46.036Z,0.09
2022-12-15T09:39:45.215Z,0.09
2022-12-15T09:40:45.356Z,0.22
2022-12-15T09:41:45.520Z,0.22
2022-12-15T09:42:46.308Z,0.25
2022-12-15T09:43:47.483Z,0.27
2022-12-15T09:44:46.062Z,0.30
2022-12-15T09:45:46.318Z,0.32
2022-12-15T09:46:49.901Z,0.32
2022-12-15T09:47:46.572Z,0.30
2022-12-15T09:48:46.740Z,0.33
2022-12-15T09:49:46.955Z,0.30
2022-12-15T09:50:47.068Z,0.32
2022-12-15T09:51:47.231Z,0.32
2022-12-15T09:52:47.392Z,0.30
2022-12-15T09:53:56.031Z,0.36
2022-12-15T09:54:48.821Z,0.33
2022-12-15T09:55:47.922Z,0.33
2022-12-15T09:56:49.928Z,0.32
2022-12-15T09:57:48.329Z,0.37
2022-12-15T09:58:50.636Z,0.33
2022-12-15T09:59:48.597Z,0.36
2022-12-15T10:00:52.391Z,0.33
2022-12-15T10:01:48.960Z,0.37
2022-12-15T10:02:49.900Z,0.38
2022-12-15T10:03:49.476Z,0.40
2022-12-15T10:04:50.840Z,0.38
2022-12-15T10:06:07.198Z,0.36
2022-12-15T10:06:51.011Z,0.43
2022-12-15T10:07:50.463Z,0.41
2022-12-15T10:08:50.425Z,0.37
2022-12-15T10:09:50.305Z,0.44
2022-12-15T10:10:50.476Z,0.50
2022-12-15T10:11:50.984Z,0.50
2022-12-15T10:13:01.146Z,0.50
2022-12-15T10:13:51.988Z,0.51
2022-12-15T10:14:51.144Z,0.48
2022-12-15T10:15:51.348Z,0.58
2022-12-15T10:16:51.472Z,0.58
2022-12-15T10:17:51.655Z,0.63
2022-12-15T10:18:54.771Z,0.79
2022-12-15T10:19:53.044Z,0.90
2022-12-15T10:20:52.184Z,1.02
2022-12-15T10:21:52.380Z,1.15
2022-12-15T10:22:52.519Z,1.35
2022-12-15T10:23:52.781Z,1.42
2022-12-15T10:25:10.190Z,1.57
2022-12-15T10:25:54.057Z,1.71
2022-12-15T10:26:53.206Z,1.74
2022-12-15T10:27:53.384Z,1.80
2022-12-15T10:28:53.707Z,1.81
2022-12-15T10:29:53.754Z,1.88
2022-12-15T10:30:53.928Z,1.92
2022-12-15T10:31:54.077Z,1.95
2022-12-15T10:32:54.217Z,1.99
2022-12-15T10:33:54.385Z,1.98
2022-12-15T10:34:54.650Z,2.04
2022-12-15T10:35:54.756Z,2.10
2022-12-15T10:36:54.917Z,2.02
2022-12-15T10:37:55.078Z,2.10
2022-12-15T10:38:55.252Z,2.14
2022-12-15T10:39:55.417Z,2.13
2022-12-15T10:40:55.610Z,2.14
2022-12-15T10:41:55.758Z,2.16
2022-12-15T10:42:55.942Z,2.17
2022-12-15T10:43:56.141Z,2.25
2022-12-15T10:44:56.301Z,2.21
2022-12-15T10:45:56.479Z,2.26
2022-12-15T10:46:56.642Z,2.29
2022-12-15T10:47:56.789Z,2.32
2022-12-15T10:48:56.980Z,2.35
2022-12-15T10:49:57.139Z,2.31
2022-12-15T10:50:57.318Z,2.34
2022-12-15T10:51:57.478Z,2.34
2022-12-15T10:52:57.649Z,2.36
2022-12-15T10:53:57.818Z,2.35
2022-12-15T10:54:57.982Z,2.38
2022-12-15T10:55:58.148Z,2.46
2022-12-15T10:56:58.503Z,2.49
2022-12-15T10:57:58.484Z,2.49
2022-12-15T10:58:58.670Z,2.46
2022-12-15T10:59:58.828Z,2.49
2022-12-15T11:00:59.000Z,2.50
2022-12-15T11:01:59.277Z,2.49
2022-12-15T11:02:59.683Z,2.50
2022-12-15T11:03:59.712Z,2.50
2022-12-15T11:04:59.697Z,2.53
2022-12-15T11:05:59.859Z,2.53
2022-12-15T11:07:00.026Z,2.54
2022-12-15T11:08:00.192Z,2.57
2022-12-15T11:09:00.381Z,2.61
2022-12-15T11:10:00.520Z,2.62
2022-12-15T11:11:00.712Z,2.67
2022-12-15T11:12:00.888Z,2.69
2022-12-15T11:13:01.082Z,2.74
2022-12-15T11:14:01.236Z,2.74
2022-12-15T11:15:01.419Z,2.83
2022-12-15T11:16:01.598Z,2.87
2022-12-15T11:17:01.771Z,2.91
2022-12-15T11:18:01.991Z,2.94
2022-12-15T11:19:02.137Z,2.99
2022-12-15T11:20:03.490Z,3.02
2022-12-15T11:21:02.482Z,3.08
2022-12-15T11:22:02.673Z,3.09
2022-12-15T11:23:02.882Z,3.17
2022-12-15T11:24:03.038Z,3.22
2022-12-15T11:25:03.222Z,3.26
2022-12-15T11:27:04.587Z,3.47
2022-12-15T11:28:03.814Z,3.58
2022-12-15T11:29:03.953Z,3.67
2022-12-15T11:30:04.137Z,3.77
2022-12-15T11:31:04.317Z,3.83
2022-12-15T11:32:07.319Z,3.92
2022-12-15T11:33:04.695Z,4.08
2022-12-15T11:34:04.834Z,4.24
2022-12-15T11:35:05.014Z,4.32
2022-12-15T11:36:05.182Z,4.54
2022-12-15T11:37:05.364Z,4.69
2022-12-15T11:38:05.553Z,4.86
2022-12-15T11:39:05.805Z,5.01
2022-12-15T11:40:05.914Z,5.21
2022-12-15T11:41:06.085Z,5.36
2022-12-15T11:42:06.273Z,5.54
2022-12-15T11:43:06.554Z,5.70
2022-12-15T11:44:06.868Z,5.91
2022-12-15T11:45:06.795Z,6.10
2022-12-15T11:46:06.972Z,6.17
2022-12-15T11:47:07.156Z,6.20
2022-12-15T11:48:07.346Z,6.25
2022-12-15T11:49:07.537Z,6.28
2022-12-15T11:50:07.706Z,6.27
2022-12-15T11:51:07.887Z,6.40
2022-12-15T11:52:08.075Z,6.47
2022-12-15T11:53:08.311Z,6.54
2022-12-15T11:54:08.438Z,6.58
2022-12-15T11:55:08.627Z,6.58
2022-12-15T11:56:08.796Z,6.64
2022-12-15T11:57:08.988Z,6.68
2022-12-15T11:58:09.150Z,6.76
2022-12-15T11:59:09.341Z,6.85
2022-12-15T12:00:09.489Z,6.96
2022-12-15T12:01:09.668Z,7.06
2022-12-15T12:02:09.885Z,7.23
2022-12-15T12:03:10.134Z,7.41
2022-12-15T12:04:10.204Z,7.60
2022-12-15T12:05:10.378Z,7.73
2022-12-15T12:06:10.560Z,7.92
2022-12-15T12:07:10.744Z,8.06
2022-12-15T12:08:10.949Z,8.20
2022-12-15T12:09:11.102Z,8.38
2022-12-15T12:10:11.290Z,8.49
2022-12-15T12:11:11.538Z,8.66
2022-12-15T12:12:11.628Z,8.81
2022-12-15T12:13:11.859Z,8.91
2022-12-15T12:14:12.152Z,9.08
2022-12-15T12:15:12.160Z,9.20
2022-12-15T12:16:12.351Z,9.35
2022-12-15T12:17:12.501Z,9.49
2022-12-15T12:18:12.702Z,9.56
2022-12-15T12:19:12.946Z,9.77
2022-12-15T12:20:13.020Z,9.88
2022-12-15T12:21:13.203Z,10.01
2022-12-15T12:22:13.394Z,10.13
2022-12-15T12:23:13.592Z,10.23
2022-12-15T12:24:13.752Z,10.37
2022-12-15T12:25:13.922Z,10.51
2022-12-15T12:26:14.104Z,10.54
2022-12-15T12:27:14.303Z,10.74
2022-12-15T12:28:14.456Z,10.77
2022-12-15T12:29:14.634Z,10.91
2022-12-15T12:30:14.814Z,11.03
2022-12-15T12:31:15.004Z,11.07
2022-12-15T12:32:15.203Z,11.12
2022-12-15T12:33:15.353Z,11.24
2022-12-15T12:34:15.530Z,11.31
2022-12-15T12:35:30.367Z,11.41
2022-12-15T12:36:16.901Z,11.48
2022-12-15T12:37:16.105Z,11.59
2022-12-15T12:38:16.256Z,11.66
2022-12-15T12:39:16.452Z,11.66
2022-12-15T12:40:16.646Z,11.83
2022-12-15T12:41:16.800Z,11.93
2022-12-15T12:42:16.958Z,12.02
2022-12-15T12:43:17.185Z,12.19
2022-12-15T12:44:17.289Z,12.29
2022-12-15T12:45:17.447Z,12.46
2022-12-15T12:46:17.594Z,12.60
2022-12-15T12:47:17.797Z,12.69
2022-12-15T12:48:17.953Z,12.86
2022-12-15T12:49:22.871Z,13.00
2022-12-15T12:50:19.283Z,13.13
2022-12-15T12:51:18.473Z,13.25
2022-12-15T12:52:18.669Z,13.40
2022-12-15T12:53:18.819Z,13.51
2022-12-15T12:54:19.023Z,13.67
2022-12-15T12:55:19.191Z,13.81
2022-12-15T12:56:19.331Z,13.99
2022-12-15T12:57:19.562Z,14.13
2022-12-15T12:58:19.693Z,14.22
2022-12-15T12:59:19.916Z,14.42
2022-12-15T13:00:20.114Z,14.52